sensor_id;sensor_type;location;lat;lon;timestamp;P1;durP1;ratioP1;P2;durP2;ratioP2
69991;SDS011;57332;51.320;-0.580;2024-02-14T00:00:54;15.23;;;2.03;;
69991;SDS011;57332;51.320;-0.580;2024-02-14T00:03:22;18.73;;;2.25;;
69991;SDS011;57332;51.320;-0.580;2024-02-14T00:05:50;10.30;;;1.60;;
69991;SDS011;57332;51.320;-0.580;2024-02-14T00:08:19;18.15;;;2.05;;
69991;SDS011;57332;51.320;-0.580;2024-02-14T00:10:46;13.63;;;2.00;;
69991;SDS011;57332;51.320;-0.580;2024-02-14T00:13:13;15.20;;;2.45;;
69991;SDS011;57332;51.320;-0.580;2024-02-14T00:15:40;14.43;;;2.20;;
69991;SDS011;57332;51.320;-0.580;2024-02-14T00:18:07;14.48;;;2.25;;
69991;SDS011;57332;51.320;-0.580;2024-02-14T00:20:34;10.95;;;1.55;;
69991;SDS011;57332;51.320;-0.580;2024-02-14T00:23:02;18.35;;;2.15;;
69991;SDS011;57332;51.320;-0.580;2024-02-14T00:25:29;12.95;;;1.30;;
69991;SDS011;57332;51.320;-0.580;2024-02-14T00:27:58;8.65;;;1.40;;
69991;SDS011;57332;51.320;-0.580;2024-02-14T00:30:27;12.98;;;1.63;;
69991;SDS011;57332;51.320;-0.580;2024-02-14T00:32:56;9.82;;;1.40;;
69991;SDS011;57332;51.320;-0.580;2024-02-14T00:35:24;7.35;;;0.90;;
69991;SDS011;57332;51.320;-0.580;2024-02-14T00:37:51;6.38;;;1.10;;
69991;SDS011;57332;51.320;-0.580;2024-02-14T00:40:18;8.07;;;1.23;;
69991;SDS011;57332;51.320;-0.580;2024-02-14T00:42:45;8.20;;;1.10;;
69991;SDS011;57332;51.320;-0.580;2024-02-14T00:45:12;6.63;;;1.33;;
69991;SDS011;57332;51.320;-0.580;2024-02-14T00:47:39;5.53;;;1.00;;
69991;SDS011;57332;51.320;-0.580;2024-02-14T00:50:06;6.38;;;0.95;;
69991;SDS011;57332;51.320;-0.580;2024-02-14T00:52:33;10.20;;;1.20;;
69991;SDS011;57332;51.320;-0.580;2024-02-14T00:55:01;7.45;;;1.20;;
69991;SDS011;57332;51.320;-0.580;2024-02-14T00:57:31;11.05;;;1.85;;
69991;SDS011;57332;51.320;-0.580;2024-02-14T00:59:59;10.50;;;1.20;;
69991;SDS011;57332;51.320;-0.580;2024-02-14T01:02:27;7.47;;;1.10;;
69991;SDS011;57332;51.320;-0.580;2024-02-14T01:04:54;9.23;;;1.10;;
69991;SDS011;57332;51.320;-0.580;2024-02-14T01:07:21;6.72;;;1.10;;
69991;SDS011;57332;51.320;-0.580;2024-02-14T01:09:48;13.15;;;1.35;;
69991;SDS011;57332;51.320;-0.580;2024-02-14T01:12:15;5.47;;;1.25;;
69991;SDS011;57332;51.320;-0.580;2024-02-14T01:14:42;8.18;;;0.90;;
69991;SDS011;57332;51.320;-0.580;2024-02-14T01:17:09;4.53;;;1.05;;
69991;SDS011;57332;51.320;-0.580;2024-02-14T01:19:36;6.75;;;1.20;;
69991;SDS011;57332;51.320;-0.580;2024-02-14T01:22:03;7.20;;;1.05;;
69991;SDS011;57332;51.320;-0.580;2024-02-14T01:24:30;12.70;;;1.58;;
69991;SDS011;57332;51.320;-0.580;2024-02-14T01:26:57;6.85;;;1.30;;
69991;SDS011;57332;51.320;-0.580;2024-02-14T01:29:25;11.65;;;1.20;;
69991;SDS011;57332;51.320;-0.580;2024-02-14T01:31:51;9.07;;;1.60;;
69991;SDS011;57332;51.320;-0.580;2024-02-14T01:34:18;9.57;;;1.25;;
69991;SDS011;57332;51.320;-0.580;2024-02-14T01:36:46;9.05;;;1.25;;
69991;SDS011;57332;51.320;-0.580;2024-02-14T01:39:13;11.20;;;1.60;;
69991;SDS011;57332;51.320;-0.580;2024-02-14T01:41:46;10.95;;;1.50;;
69991;SDS011;57332;51.320;-0.580;2024-02-14T01:44:15;5.45;;;1.40;;
69991;SDS011;57332;51.320;-0.580;2024-02-14T01:46:42;9.15;;;1.45;;
69991;SDS011;57332;51.320;-0.580;2024-02-14T01:49:12;13.20;;;1.67;;
69991;SDS011;57332;51.320;-0.580;2024-02-14T01:51:40;6.70;;;1.23;;
69991;SDS011;57332;51.320;-0.580;2024-02-14T01:54:08;7.97;;;1.40;;
69991;SDS011;57332;51.320;-0.580;2024-02-14T01:56:37;7.47;;;1.00;;
69991;SDS011;57332;51.320;-0.580;2024-02-14T01:59:04;5.90;;;1.30;;
69991;SDS011;57332;51.320;-0.580;2024-02-14T02:01:32;6.82;;;0.93;;
69991;SDS011;57332;51.320;-0.580;2024-02-14T02:04:00;6.18;;;1.10;;
69991;SDS011;57332;51.320;-0.580;2024-02-14T02:06:27;6.40;;;1.02;;
69991;SDS011;57332;51.320;-0.580;2024-02-14T02:08:55;5.55;;;0.90;;
69991;SDS011;57332;51.320;-0.580;2024-02-14T02:11:25;4.88;;;1.05;;
69991;SDS011;57332;51.320;-0.580;2024-02-14T02:13:53;4.63;;;1.00;;
69991;SDS011;57332;51.320;-0.580;2024-02-14T02:16:19;5.97;;;1.13;;
69991;SDS011;57332;51.320;-0.580;2024-02-14T02:18:48;5.20;;;1.10;;
69991;SDS011;57332;51.320;-0.580;2024-02-14T02:21:16;4.55;;;1.10;;
69991;SDS011;57332;51.320;-0.580;2024-02-14T02:23:46;3.40;;;1.20;;
69991;SDS011;57332;51.320;-0.580;2024-02-14T02:26:13;3.58;;;1.13;;
69991;SDS011;57332;51.320;-0.580;2024-02-14T02:28:41;3.33;;;1.00;;
69991;SDS011;57332;51.320;-0.580;2024-02-14T02:31:09;1.88;;;1.08;;
69991;SDS011;57332;51.320;-0.580;2024-02-14T02:33:37;5.45;;;1.00;;
69991;SDS011;57332;51.320;-0.580;2024-02-14T02:36:04;5.35;;;1.08;;
69991;SDS011;57332;51.320;-0.580;2024-02-14T02:38:33;2.22;;;0.93;;
69991;SDS011;57332;51.320;-0.580;2024-02-14T02:41:00;4.05;;;1.00;;
69991;SDS011;57332;51.320;-0.580;2024-02-14T02:43:27;4.63;;;0.80;;
69991;SDS011;57332;51.320;-0.580;2024-02-14T02:45:55;4.18;;;1.10;;
69991;SDS011;57332;51.320;-0.580;2024-02-14T02:48:22;3.85;;;1.00;;
69991;SDS011;57332;51.320;-0.580;2024-02-14T02:50:50;3.20;;;0.90;;
69991;SDS011;57332;51.320;-0.580;2024-02-14T02:53:18;4.63;;;0.80;;
69991;SDS011;57332;51.320;-0.580;2024-02-14T02:55:45;1.92;;;0.52;;
69991;SDS011;57332;51.320;-0.580;2024-02-14T02:58:12;2.67;;;0.70;;
69991;SDS011;57332;51.320;-0.580;2024-02-14T03:00:40;4.55;;;0.85;;
69991;SDS011;57332;51.320;-0.580;2024-02-14T03:03:07;4.18;;;0.52;;
69991;SDS011;57332;51.320;-0.580;2024-02-14T03:05:35;1.00;;;0.40;;
69991;SDS011;57332;51.320;-0.580;2024-02-14T03:08:02;3.65;;;0.68;;
69991;SDS011;57332;51.320;-0.580;2024-02-14T03:10:29;2.35;;;0.40;;
69991;SDS011;57332;51.320;-0.580;2024-02-14T03:12:56;2.67;;;0.70;;
69991;SDS011;57332;51.320;-0.580;2024-02-14T03:15:23;3.65;;;0.40;;
69991;SDS011;57332;51.320;-0.580;2024-02-14T03:17:52;3.63;;;0.50;;
69991;SDS011;57332;51.320;-0.580;2024-02-14T03:20:19;1.58;;;0.30;;
69991;SDS011;57332;51.320;-0.580;2024-02-14T03:22:46;2.10;;;0.43;;
69991;SDS011;57332;51.320;-0.580;2024-02-14T03:25:16;7.72;;;0.60;;
69991;SDS011;57332;51.320;-0.580;2024-02-14T03:27:43;4.95;;;0.60;;
69991;SDS011;57332;51.320;-0.580;2024-02-14T03:30:14;0.93;;;0.28;;
69991;SDS011;57332;51.320;-0.580;2024-02-14T03:32:43;3.78;;;0.40;;
69991;SDS011;57332;51.320;-0.580;2024-02-14T03:35:10;2.97;;;0.50;;
69991;SDS011;57332;51.320;-0.580;2024-02-14T03:37:42;1.30;;;0.50;;
69991;SDS011;57332;51.320;-0.580;2024-02-14T03:40:10;4.50;;;0.50;;
69991;SDS011;57332;51.320;-0.580;2024-02-14T03:42:38;0.68;;;0.35;;
69991;SDS011;57332;51.320;-0.580;2024-02-14T03:45:07;2.42;;;0.80;;
69991;SDS011;57332;51.320;-0.580;2024-02-14T03:47:34;5.40;;;0.63;;
69991;SDS011;57332;51.320;-0.580;2024-02-14T03:50:02;2.47;;;0.55;;
69991;SDS011;57332;51.320;-0.580;2024-02-14T03:52:31;2.40;;;0.70;;
69991;SDS011;57332;51.320;-0.580;2024-02-14T03:55:00;2.70;;;0.60;;
69991;SDS011;57332;51.320;-0.580;2024-02-14T03:57:28;1.00;;;0.50;;
69991;SDS011;57332;51.320;-0.580;2024-02-14T03:59:55;5.78;;;0.73;;
69991;SDS011;57332;51.320;-0.580;2024-02-14T04:02:25;3.53;;;0.52;;
69991;SDS011;57332;51.320;-0.580;2024-02-14T04:04:55;6.30;;;0.90;;
69991;SDS011;57332;51.320;-0.580;2024-02-14T04:07:22;5.05;;;0.68;;
69991;SDS011;57332;51.320;-0.580;2024-02-14T04:09:49;3.92;;;0.70;;
69991;SDS011;57332;51.320;-0.580;2024-02-14T04:12:15;4.10;;;0.68;;
69991;SDS011;57332;51.320;-0.580;2024-02-14T04:14:42;2.65;;;0.50;;
69991;SDS011;57332;51.320;-0.580;2024-02-14T04:17:09;3.80;;;0.77;;
69991;SDS011;57332;51.320;-0.580;2024-02-14T04:19:39;1.50;;;0.70;;
69991;SDS011;57332;51.320;-0.580;2024-02-14T04:22:06;3.15;;;0.60;;
69991;SDS011;57332;51.320;-0.580;2024-02-14T04:24:34;2.60;;;0.70;;
69991;SDS011;57332;51.320;-0.580;2024-02-14T04:27:01;3.88;;;0.70;;
69991;SDS011;57332;51.320;-0.580;2024-02-14T04:29:30;4.68;;;0.75;;
69991;SDS011;57332;51.320;-0.580;2024-02-14T04:32:00;3.35;;;0.65;;
69991;SDS011;57332;51.320;-0.580;2024-02-14T04:34:27;5.55;;;0.82;;
69991;SDS011;57332;51.320;-0.580;2024-02-14T04:36:54;5.60;;;0.90;;
69991;SDS011;57332;51.320;-0.580;2024-02-14T04:39:21;3.60;;;0.75;;
69991;SDS011;57332;51.320;-0.580;2024-02-14T04:41:48;7.25;;;1.13;;
69991;SDS011;57332;51.320;-0.580;2024-02-14T04:44:30;6.18;;;0.85;;
69991;SDS011;57332;51.320;-0.580;2024-02-14T04:46:58;5.05;;;0.90;;
69991;SDS011;57332;51.320;-0.580;2024-02-14T04:49:26;4.43;;;0.90;;
69991;SDS011;57332;51.320;-0.580;2024-02-14T04:51:54;4.00;;;1.33;;
69991;SDS011;57332;51.320;-0.580;2024-02-14T04:54:20;3.67;;;1.10;;
69991;SDS011;57332;51.320;-0.580;2024-02-14T04:56:47;5.07;;;1.50;;
69991;SDS011;57332;51.320;-0.580;2024-02-14T04:59:21;6.22;;;1.30;;
69991;SDS011;57332;51.320;-0.580;2024-02-14T05:01:47;4.28;;;1.50;;
69991;SDS011;57332;51.320;-0.580;2024-02-14T05:04:14;4.78;;;2.20;;
69991;SDS011;57332;51.320;-0.580;2024-02-14T05:06:43;5.85;;;1.70;;
69991;SDS011;57332;51.320;-0.580;2024-02-14T05:09:10;6.68;;;1.88;;
69991;SDS011;57332;51.320;-0.580;2024-02-14T05:11:37;4.10;;;1.70;;
69991;SDS011;57332;51.320;-0.580;2024-02-14T05:14:04;3.45;;;1.60;;
69991;SDS011;57332;51.320;-0.580;2024-02-14T05:16:31;5.68;;;1.88;;
69991;SDS011;57332;51.320;-0.580;2024-02-14T05:18:58;5.28;;;1.92;;
69991;SDS011;57332;51.320;-0.580;2024-02-14T05:21:26;5.93;;;2.20;;
69991;SDS011;57332;51.320;-0.580;2024-02-14T05:23:54;4.80;;;2.00;;
69991;SDS011;57332;51.320;-0.580;2024-02-14T05:26:21;6.28;;;2.42;;
69991;SDS011;57332;51.320;-0.580;2024-02-14T05:28:47;8.60;;;2.63;;
69991;SDS011;57332;51.320;-0.580;2024-02-14T05:31:14;8.38;;;2.40;;
69991;SDS011;57332;51.320;-0.580;2024-02-14T05:33:43;5.57;;;2.50;;
69991;SDS011;57332;51.320;-0.580;2024-02-14T05:36:10;6.05;;;2.40;;
69991;SDS011;57332;51.320;-0.580;2024-02-14T05:38:37;4.53;;;2.17;;
69991;SDS011;57332;51.320;-0.580;2024-02-14T05:41:04;5.88;;;2.03;;
69991;SDS011;57332;51.320;-0.580;2024-02-14T05:43:31;7.88;;;2.25;;
69991;SDS011;57332;51.320;-0.580;2024-02-14T05:45:57;3.97;;;2.05;;
69991;SDS011;57332;51.320;-0.580;2024-02-14T05:48:24;4.97;;;1.85;;
69991;SDS011;57332;51.320;-0.580;2024-02-14T05:50:52;4.38;;;1.75;;
69991;SDS011;57332;51.320;-0.580;2024-02-14T05:53:19;6.10;;;2.30;;
69991;SDS011;57332;51.320;-0.580;2024-02-14T05:55:47;6.10;;;2.03;;
69991;SDS011;57332;51.320;-0.580;2024-02-14T05:58:13;4.55;;;2.15;;
69991;SDS011;57332;51.320;-0.580;2024-02-14T06:00:41;5.43;;;2.38;;
69991;SDS011;57332;51.320;-0.580;2024-02-14T06:03:09;4.63;;;1.83;;
69991;SDS011;57332;51.320;-0.580;2024-02-14T06:05:36;7.43;;;1.77;;
69991;SDS011;57332;51.320;-0.580;2024-02-14T06:08:03;6.38;;;1.83;;
69991;SDS011;57332;51.320;-0.580;2024-02-14T06:10:30;3.55;;;1.52;;
69991;SDS011;57332;51.320;-0.580;2024-02-14T06:12:57;5.88;;;1.50;;
69991;SDS011;57332;51.320;-0.580;2024-02-14T06:15:24;4.45;;;1.55;;
69991;SDS011;57332;51.320;-0.580;2024-02-14T06:17:50;3.80;;;1.67;;
69991;SDS011;57332;51.320;-0.580;2024-02-14T06:20:18;2.88;;;1.20;;
69991;SDS011;57332;51.320;-0.580;2024-02-14T06:22:45;3.55;;;1.17;;
69991;SDS011;57332;51.320;-0.580;2024-02-14T06:25:26;4.03;;;1.25;;
69991;SDS011;57332;51.320;-0.580;2024-02-14T06:27:53;1.55;;;0.98;;
69991;SDS011;57332;51.320;-0.580;2024-02-14T06:30:23;1.45;;;0.73;;
69991;SDS011;57332;51.320;-0.580;2024-02-14T06:32:52;1.88;;;0.70;;
69991;SDS011;57332;51.320;-0.580;2024-02-14T06:35:19;1.85;;;0.70;;
69991;SDS011;57332;51.320;-0.580;2024-02-14T06:37:47;2.35;;;0.80;;
69991;SDS011;57332;51.320;-0.580;2024-02-14T06:40:28;1.70;;;0.52;;
69991;SDS011;57332;51.320;-0.580;2024-02-14T06:42:56;1.33;;;0.70;;
69991;SDS011;57332;51.320;-0.580;2024-02-14T06:45:25;1.13;;;0.63;;
69991;SDS011;57332;51.320;-0.580;2024-02-14T06:47:52;1.85;;;0.60;;
69991;SDS011;57332;51.320;-0.580;2024-02-14T06:50:19;2.13;;;0.80;;
69991;SDS011;57332;51.320;-0.580;2024-02-14T06:52:46;3.10;;;0.90;;
69991;SDS011;57332;51.320;-0.580;2024-02-14T06:55:13;1.25;;;0.70;;
69991;SDS011;57332;51.320;-0.580;2024-02-14T06:57:40;2.22;;;0.63;;
69991;SDS011;57332;51.320;-0.580;2024-02-14T07:00:07;2.85;;;0.70;;
69991;SDS011;57332;51.320;-0.580;2024-02-14T07:02:36;1.10;;;0.60;;
69991;SDS011;57332;51.320;-0.580;2024-02-14T07:05:03;1.48;;;0.85;;
69991;SDS011;57332;51.320;-0.580;2024-02-14T07:07:30;2.55;;;0.77;;
69991;SDS011;57332;51.320;-0.580;2024-02-14T07:09:57;2.58;;;0.95;;
69991;SDS011;57332;51.320;-0.580;2024-02-14T07:12:23;2.30;;;1.05;;
69991;SDS011;57332;51.320;-0.580;2024-02-14T07:14:50;4.32;;;1.27;;
69991;SDS011;57332;51.320;-0.580;2024-02-14T07:17:18;3.40;;;1.27;;
69991;SDS011;57332;51.320;-0.580;2024-02-14T07:19:45;2.33;;;1.20;;
69991;SDS011;57332;51.320;-0.580;2024-02-14T07:22:16;2.20;;;1.17;;
69991;SDS011;57332;51.320;-0.580;2024-02-14T07:24:46;2.33;;;1.25;;
69991;SDS011;57332;51.320;-0.580;2024-02-14T07:27:15;4.97;;;1.40;;
69991;SDS011;57332;51.320;-0.580;2024-02-14T07:29:43;2.63;;;1.42;;
69991;SDS011;57332;51.320;-0.580;2024-02-14T07:32:11;2.58;;;1.30;;
69991;SDS011;57332;51.320;-0.580;2024-02-14T07:34:38;4.13;;;1.63;;
69991;SDS011;57332;51.320;-0.580;2024-02-14T07:37:08;2.97;;;1.48;;
69991;SDS011;57332;51.320;-0.580;2024-02-14T07:39:35;3.33;;;1.45;;
69991;SDS011;57332;51.320;-0.580;2024-02-14T07:42:02;3.60;;;1.70;;
69991;SDS011;57332;51.320;-0.580;2024-02-14T07:44:29;3.03;;;1.65;;
69991;SDS011;57332;51.320;-0.580;2024-02-14T07:46:56;2.53;;;1.45;;
69991;SDS011;57332;51.320;-0.580;2024-02-14T07:49:27;3.92;;;1.55;;
69991;SDS011;57332;51.320;-0.580;2024-02-14T07:51:54;3.30;;;1.40;;
69991;SDS011;57332;51.320;-0.580;2024-02-14T07:54:21;5.15;;;1.60;;
69991;SDS011;57332;51.320;-0.580;2024-02-14T07:56:48;3.97;;;1.63;;
69991;SDS011;57332;51.320;-0.580;2024-02-14T07:59:15;3.75;;;1.40;;
69991;SDS011;57332;51.320;-0.580;2024-02-14T08:01:41;3.67;;;1.08;;
69991;SDS011;57332;51.320;-0.580;2024-02-14T08:04:10;3.28;;;1.33;;
69991;SDS011;57332;51.320;-0.580;2024-02-14T08:06:37;1.83;;;0.90;;
69991;SDS011;57332;51.320;-0.580;2024-02-14T08:09:04;2.63;;;1.00;;
69991;SDS011;57332;51.320;-0.580;2024-02-14T08:11:33;1.95;;;1.10;;
69991;SDS011;57332;51.320;-0.580;2024-02-14T08:14:00;2.85;;;1.38;;
69991;SDS011;57332;51.320;-0.580;2024-02-14T08:16:27;3.38;;;1.20;;
69991;SDS011;57332;51.320;-0.580;2024-02-14T08:18:54;2.25;;;1.10;;
69991;SDS011;57332;51.320;-0.580;2024-02-14T08:21:26;4.00;;;0.98;;
69991;SDS011;57332;51.320;-0.580;2024-02-14T08:23:57;2.72;;;1.08;;
69991;SDS011;57332;51.320;-0.580;2024-02-14T08:26:26;1.85;;;1.25;;
69991;SDS011;57332;51.320;-0.580;2024-02-14T08:28:54;3.35;;;1.25;;
69991;SDS011;57332;51.320;-0.580;2024-02-14T08:31:20;4.07;;;1.58;;
69991;SDS011;57332;51.320;-0.580;2024-02-14T08:33:47;4.15;;;1.80;;
69991;SDS011;57332;51.320;-0.580;2024-02-14T08:36:15;3.65;;;1.80;;
69991;SDS011;57332;51.320;-0.580;2024-02-14T08:38:43;3.58;;;1.80;;
69991;SDS011;57332;51.320;-0.580;2024-02-14T08:41:10;5.28;;;2.00;;
69991;SDS011;57332;51.320;-0.580;2024-02-14T08:43:38;4.20;;;2.22;;
69991;SDS011;57332;51.320;-0.580;2024-02-14T08:46:09;6.10;;;2.05;;
69991;SDS011;57332;51.320;-0.580;2024-02-14T08:48:36;6.57;;;2.40;;
69991;SDS011;57332;51.320;-0.580;2024-02-14T08:51:07;6.00;;;2.53;;
69991;SDS011;57332;51.320;-0.580;2024-02-14T08:53:35;6.65;;;2.60;;
69991;SDS011;57332;51.320;-0.580;2024-02-14T08:56:03;5.07;;;2.13;;
69991;SDS011;57332;51.320;-0.580;2024-02-14T08:58:30;3.65;;;2.08;;
69991;SDS011;57332;51.320;-0.580;2024-02-14T09:00:57;4.22;;;2.22;;
69991;SDS011;57332;51.320;-0.580;2024-02-14T09:03:38;3.45;;;1.77;;
69991;SDS011;57332;51.320;-0.580;2024-02-14T09:06:05;2.78;;;1.40;;
69991;SDS011;57332;51.320;-0.580;2024-02-14T09:08:32;4.38;;;1.80;;
69991;SDS011;57332;51.320;-0.580;2024-02-14T09:10:59;2.72;;;1.38;;
69991;SDS011;57332;51.320;-0.580;2024-02-14T09:13:26;2.60;;;1.23;;
69991;SDS011;57332;51.320;-0.580;2024-02-14T09:15:54;4.68;;;1.50;;
69991;SDS011;57332;51.320;-0.580;2024-02-14T09:18:21;2.40;;;1.10;;
69991;SDS011;57332;51.320;-0.580;2024-02-14T09:20:48;1.95;;;0.90;;
69991;SDS011;57332;51.320;-0.580;2024-02-14T09:23:17;1.98;;;1.00;;
69991;SDS011;57332;51.320;-0.580;2024-02-14T09:25:47;1.77;;;0.85;;
69991;SDS011;57332;51.320;-0.580;2024-02-14T09:28:15;1.65;;;0.70;;
69991;SDS011;57332;51.320;-0.580;2024-02-14T09:30:42;3.00;;;0.85;;
69991;SDS011;57332;51.320;-0.580;2024-02-14T09:33:09;2.17;;;0.85;;
69991;SDS011;57332;51.320;-0.580;2024-02-14T09:35:37;1.52;;;0.77;;
69991;SDS011;57332;51.320;-0.580;2024-02-14T09:38:05;1.58;;;0.80;;
69991;SDS011;57332;51.320;-0.580;2024-02-14T09:40:32;2.38;;;1.00;;
69991;SDS011;57332;51.320;-0.580;2024-02-14T09:43:00;3.55;;;0.93;;
69991;SDS011;57332;51.320;-0.580;2024-02-14T09:45:30;1.65;;;0.98;;
69991;SDS011;57332;51.320;-0.580;2024-02-14T09:48:00;1.63;;;1.02;;
69991;SDS011;57332;51.320;-0.580;2024-02-14T09:50:28;2.78;;;1.20;;
69991;SDS011;57332;51.320;-0.580;2024-02-14T09:52:57;1.90;;;1.20;;
69991;SDS011;57332;51.320;-0.580;2024-02-14T09:55:25;2.40;;;1.00;;
69991;SDS011;57332;51.320;-0.580;2024-02-14T09:57:53;1.50;;;1.10;;
69991;SDS011;57332;51.320;-0.580;2024-02-14T10:00:21;1.67;;;1.00;;
69991;SDS011;57332;51.320;-0.580;2024-02-14T10:02:49;2.35;;;0.90;;
69991;SDS011;57332;51.320;-0.580;2024-02-14T10:05:16;2.55;;;0.88;;
69991;SDS011;57332;51.320;-0.580;2024-02-14T10:07:43;1.27;;;0.90;;
69991;SDS011;57332;51.320;-0.580;2024-02-14T10:10:11;2.28;;;1.00;;
69991;SDS011;57332;51.320;-0.580;2024-02-14T10:12:38;1.80;;;1.05;;
69991;SDS011;57332;51.320;-0.580;2024-02-14T10:15:08;1.75;;;0.77;;
69991;SDS011;57332;51.320;-0.580;2024-02-14T10:17:35;1.48;;;0.93;;
69991;SDS011;57332;51.320;-0.580;2024-02-14T10:20:03;3.90;;;1.08;;
69991;SDS011;57332;51.320;-0.580;2024-02-14T10:22:35;2.60;;;0.90;;
69991;SDS011;57332;51.320;-0.580;2024-02-14T10:25:03;1.33;;;0.80;;
69991;SDS011;57332;51.320;-0.580;2024-02-14T10:27:30;1.27;;;0.85;;
69991;SDS011;57332;51.320;-0.580;2024-02-14T10:30:00;2.13;;;0.70;;
69991;SDS011;57332;51.320;-0.580;2024-02-14T10:32:27;0.95;;;0.70;;
69991;SDS011;57332;51.320;-0.580;2024-02-14T10:34:54;2.60;;;0.80;;
69991;SDS011;57332;51.320;-0.580;2024-02-14T10:37:21;1.65;;;0.80;;
69991;SDS011;57332;51.320;-0.580;2024-02-14T10:39:49;2.45;;;1.00;;
69991;SDS011;57332;51.320;-0.580;2024-02-14T10:42:19;1.35;;;0.60;;
69991;SDS011;57332;51.320;-0.580;2024-02-14T10:44:46;0.82;;;0.60;;
69991;SDS011;57332;51.320;-0.580;2024-02-14T10:47:18;4.63;;;0.90;;
69991;SDS011;57332;51.320;-0.580;2024-02-14T10:49:47;3.60;;;0.88;;
69991;SDS011;57332;51.320;-0.580;2024-02-14T10:52:15;0.68;;;0.60;;
69991;SDS011;57332;51.320;-0.580;2024-02-14T10:54:42;2.03;;;0.63;;
69991;SDS011;57332;51.320;-0.580;2024-02-14T10:57:09;3.28;;;0.77;;
69991;SDS011;57332;51.320;-0.580;2024-02-14T10:59:41;6.03;;;1.08;;
69991;SDS011;57332;51.320;-0.580;2024-02-14T11:02:10;7.22;;;0.82;;
69991;SDS011;57332;51.320;-0.580;2024-02-14T11:04:37;3.08;;;0.60;;
69991;SDS011;57332;51.320;-0.580;2024-02-14T11:07:08;1.88;;;0.80;;
69991;SDS011;57332;51.320;-0.580;2024-02-14T11:09:36;1.05;;;0.55;;
69991;SDS011;57332;51.320;-0.580;2024-02-14T11:12:08;2.78;;;0.77;;
69991;SDS011;57332;51.320;-0.580;2024-02-14T11:14:35;3.63;;;0.73;;
69991;SDS011;57332;51.320;-0.580;2024-02-14T11:17:03;4.90;;;0.70;;
69991;SDS011;57332;51.320;-0.580;2024-02-14T11:19:31;2.42;;;0.80;;
69991;SDS011;57332;51.320;-0.580;2024-02-14T11:22:10;4.35;;;0.90;;
69991;SDS011;57332;51.320;-0.580;2024-02-14T11:24:38;4.88;;;0.88;;
69991;SDS011;57332;51.320;-0.580;2024-02-14T11:27:11;4.38;;;1.00;;
69991;SDS011;57332;51.320;-0.580;2024-02-14T11:29:58;3.13;;;0.63;;
69991;SDS011;57332;51.320;-0.580;2024-02-14T11:32:27;2.65;;;0.70;;
69991;SDS011;57332;51.320;-0.580;2024-02-14T11:34:54;2.90;;;0.80;;
69991;SDS011;57332;51.320;-0.580;2024-02-14T11:37:29;4.20;;;0.75;;
69991;SDS011;57332;51.320;-0.580;2024-02-14T11:39:56;3.00;;;0.82;;
69991;SDS011;57332;51.320;-0.580;2024-02-14T11:42:24;4.47;;;0.90;;
69991;SDS011;57332;51.320;-0.580;2024-02-14T11:44:53;2.42;;;0.95;;
69991;SDS011;57332;51.320;-0.580;2024-02-14T11:47:23;4.05;;;1.00;;
69991;SDS011;57332;51.320;-0.580;2024-02-14T11:49:50;2.95;;;0.80;;
69991;SDS011;57332;51.320;-0.580;2024-02-14T11:52:17;6.40;;;1.00;;
69991;SDS011;57332;51.320;-0.580;2024-02-14T11:54:47;4.32;;;1.05;;
69991;SDS011;57332;51.320;-0.580;2024-02-14T11:57:17;4.78;;;0.98;;
69991;SDS011;57332;51.320;-0.580;2024-02-14T11:59:45;3.85;;;0.80;;
69991;SDS011;57332;51.320;-0.580;2024-02-14T12:02:16;3.35;;;1.17;;
69991;SDS011;57332;51.320;-0.580;2024-02-14T12:04:43;4.20;;;0.82;;
69991;SDS011;57332;51.320;-0.580;2024-02-14T12:07:11;3.30;;;0.82;;
69991;SDS011;57332;51.320;-0.580;2024-02-14T12:09:38;1.95;;;0.70;;
69991;SDS011;57332;51.320;-0.580;2024-02-14T12:12:05;2.17;;;0.70;;
69991;SDS011;57332;51.320;-0.580;2024-02-14T12:14:32;3.75;;;0.70;;
69991;SDS011;57332;51.320;-0.580;2024-02-14T12:17:00;2.63;;;0.70;;
69991;SDS011;57332;51.320;-0.580;2024-02-14T12:19:30;4.18;;;1.20;;
69991;SDS011;57332;51.320;-0.580;2024-02-14T12:21:59;1.38;;;0.70;;
69991;SDS011;57332;51.320;-0.580;2024-02-14T12:24:28;1.35;;;0.60;;
69991;SDS011;57332;51.320;-0.580;2024-02-14T12:26:57;3.33;;;0.40;;
69991;SDS011;57332;51.320;-0.580;2024-02-14T12:29:24;5.70;;;0.80;;
69991;SDS011;57332;51.320;-0.580;2024-02-14T12:32:02;2.17;;;0.57;;
69991;SDS011;57332;51.320;-0.580;2024-02-14T12:34:29;3.22;;;0.70;;
69991;SDS011;57332;51.320;-0.580;2024-02-14T12:36:57;1.65;;;0.45;;
69991;SDS011;57332;51.320;-0.580;2024-02-14T12:39:23;3.03;;;0.82;;
69991;SDS011;57332;51.320;-0.580;2024-02-14T12:41:52;2.13;;;0.65;;
69991;SDS011;57332;51.320;-0.580;2024-02-14T12:44:19;1.83;;;0.68;;
69991;SDS011;57332;51.320;-0.580;2024-02-14T12:46:46;2.83;;;0.63;;
69991;SDS011;57332;51.320;-0.580;2024-02-14T12:49:14;1.45;;;0.70;;
69991;SDS011;57332;51.320;-0.580;2024-02-14T12:51:40;2.47;;;0.80;;
69991;SDS011;57332;51.320;-0.580;2024-02-14T12:54:09;1.67;;;0.70;;
69991;SDS011;57332;51.320;-0.580;2024-02-14T12:56:36;0.85;;;0.73;;
69991;SDS011;57332;51.320;-0.580;2024-02-14T12:59:03;1.83;;;0.82;;
69991;SDS011;57332;51.320;-0.580;2024-02-14T13:01:30;0.75;;;0.70;;
69991;SDS011;57332;51.320;-0.580;2024-02-14T13:03:57;1.33;;;0.70;;
69991;SDS011;57332;51.320;-0.580;2024-02-14T13:06:26;2.78;;;0.90;;
69991;SDS011;57332;51.320;-0.580;2024-02-14T13:08:53;4.00;;;1.00;;
69991;SDS011;57332;51.320;-0.580;2024-02-14T13:11:20;2.50;;;1.00;;
69991;SDS011;57332;51.320;-0.580;2024-02-14T13:13:47;2.35;;;0.98;;
69991;SDS011;57332;51.320;-0.580;2024-02-14T13:16:14;3.28;;;1.13;;
69991;SDS011;57332;51.320;-0.580;2024-02-14T13:18:41;1.95;;;1.05;;
69991;SDS011;57332;51.320;-0.580;2024-02-14T13:21:08;2.15;;;1.10;;
69991;SDS011;57332;51.320;-0.580;2024-02-14T13:23:36;2.92;;;1.27;;
69991;SDS011;57332;51.320;-0.580;2024-02-14T13:26:03;2.78;;;1.13;;
69991;SDS011;57332;51.320;-0.580;2024-02-14T13:28:30;2.60;;;1.00;;
69991;SDS011;57332;51.320;-0.580;2024-02-14T13:30:57;3.15;;;1.60;;
69991;SDS011;57332;51.320;-0.580;2024-02-14T13:33:24;4.53;;;1.20;;
69991;SDS011;57332;51.320;-0.580;2024-02-14T13:35:52;3.03;;;1.30;;
69991;SDS011;57332;51.320;-0.580;2024-02-14T13:38:19;2.63;;;1.15;;
69991;SDS011;57332;51.320;-0.580;2024-02-14T13:40:46;2.78;;;1.13;;
69991;SDS011;57332;51.320;-0.580;2024-02-14T13:43:13;3.38;;;1.10;;
69991;SDS011;57332;51.320;-0.580;2024-02-14T13:45:44;2.55;;;0.90;;
69991;SDS011;57332;51.320;-0.580;2024-02-14T13:48:11;2.80;;;1.17;;
69991;SDS011;57332;51.320;-0.580;2024-02-14T13:50:39;1.88;;;1.00;;
69991;SDS011;57332;51.320;-0.580;2024-02-14T13:53:06;2.00;;;0.82;;
69991;SDS011;57332;51.320;-0.580;2024-02-14T13:55:33;4.10;;;1.00;;
69991;SDS011;57332;51.320;-0.580;2024-02-14T13:58:00;2.78;;;1.00;;
69991;SDS011;57332;51.320;-0.580;2024-02-14T14:00:27;3.10;;;0.80;;
69991;SDS011;57332;51.320;-0.580;2024-02-14T14:02:54;2.22;;;0.80;;
69991;SDS011;57332;51.320;-0.580;2024-02-14T14:05:22;3.60;;;0.68;;
69991;SDS011;57332;51.320;-0.580;2024-02-14T14:07:49;1.10;;;0.75;;
69991;SDS011;57332;51.320;-0.580;2024-02-14T14:10:25;2.95;;;0.80;;
69991;SDS011;57332;51.320;-0.580;2024-02-14T14:12:53;1.60;;;0.60;;
69991;SDS011;57332;51.320;-0.580;2024-02-14T14:15:20;2.47;;;0.80;;
69991;SDS011;57332;51.320;-0.580;2024-02-14T14:17:49;1.50;;;0.55;;
69991;SDS011;57332;51.320;-0.580;2024-02-14T14:20:16;1.10;;;0.70;;
69991;SDS011;57332;51.320;-0.580;2024-02-14T14:22:43;1.90;;;0.80;;
69991;SDS011;57332;51.320;-0.580;2024-02-14T14:25:09;2.75;;;0.70;;
69991;SDS011;57332;51.320;-0.580;2024-02-14T14:27:36;1.90;;;0.82;;
69991;SDS011;57332;51.320;-0.580;2024-02-14T14:30:04;1.60;;;0.65;;
69991;SDS011;57332;51.320;-0.580;2024-02-14T14:32:31;1.48;;;0.80;;
69991;SDS011;57332;51.320;-0.580;2024-02-14T14:34:58;3.25;;;1.23;;
69991;SDS011;57332;51.320;-0.580;2024-02-14T14:37:25;2.30;;;0.60;;